Touros, Brazil
Current Conditions -  °F | °C
As of 2:00 AM on Monday 22 Dec 2014 (Local Time) from SBNT Reporting Station
Light Rain Light Rain  
Wind Chill: 75°   Ceiling: 1800
Heat Index: 75°   Visibility: 4mi
Dew Point: 72°   Wind: 6mph
Humidity: 89%   Direction: 160°SSE
Pressure: 29.88"   Gusts: NA
Location:  5.2°S, 35.46°W
Report Text: SBNT 220500Z 16005KT 6000 -RA SCT010 BKN018 BKN070 24/22 Q1012
Loading
Personal Weather Stations






























Interactive Weather Map New forecast layout! Learn more

10-Day Weather Forecast

Advertisements
Track Severe Weather on mobile